Time;durP1;ratioP1;P1;durP2;ratioP2;P2;SDS_P1;SDS_P2;PMS_P1;PMS_P2;Temp;Humidity;BMP_temperature;BMP_pressure;BME280_temperature;BME280_humidity;BME280_pressure;Samples;Min_cycle;Max_cycle;Signal;HPM_P1;HPM_P2
2022/06/15 00:00:35;;;;;;;0.40;0.30;;;15.50;60.20;;;;;;5014261;28;20465;-73
2022/06/15 00:03:01;;;;;;;0.30;0.30;;;15.60;60.20;;;;;;4997310;28;20127;-74
2022/06/15 00:05:28;;;;;;;0.60;0.43;;;15.50;60.20;;;;;;5014111;28;20498;-73
2022/06/15 00:07:53;;;;;;;0.20;0.20;;;15.50;60.20;;;;;;5015160;28;20116;-73
2022/06/15 00:10:20;;;;;;;0.30;0.30;;;15.50;60.30;;;;;;5014596;28;20042;-73
2022/06/15 00:12:46;;;;;;;0.25;0.20;;;15.50;60.30;;;;;;5015214;28;20037;-73
2022/06/15 00:15:13;;;;;;;0.25;0.25;;;15.50;60.30;;;;;;5014275;28;20046;-73
2022/06/15 00:17:39;;;;;;;0.20;0.20;;;15.40;60.40;;;;;;5012655;28;20077;-74
2022/06/15 00:20:05;;;;;;;0.90;0.30;;;15.40;60.50;;;;;;5017172;28;20096;-74
2022/06/15 00:22:31;;;;;;;0.75;0.20;;;15.40;60.50;;;;;;5017305;28;20038;-73
2022/06/15 00:24:57;;;;;;;0.82;0.30;;;15.40;60.60;;;;;;4998613;28;20367;-74
2022/06/15 00:27:23;;;;;;;0.57;0.30;;;15.30;60.70;;;;;;4998059;28;20045;-74
2022/06/15 00:29:48;;;;;;;0.20;0.20;;;15.30;60.80;;;;;;5001065;28;20080;-73
2022/06/15 00:32:14;;;;;;;0.47;0.30;;;15.30;60.90;;;;;;5016963;28;20041;-73
2022/06/15 00:34:40;;;;;;;0.30;0.30;;;15.30;61.00;;;;;;5016530;28;20045;-73
2022/06/15 00:37:06;;;;;;;0.45;0.40;;;15.30;61.00;;;;;;5015067;28;20034;-74
2022/06/15 00:39:33;;;;;;;0.30;0.30;;;15.30;61.10;;;;;;5021500;28;20426;-73
2022/06/15 00:42:01;;;;;;;0.30;0.30;;;15.20;61.20;;;;;;5020298;28;20045;-74
2022/06/15 00:44:33;;;;;;;0.90;0.30;;;15.10;61.20;;;;;;5019981;28;20042;-74
2022/06/15 00:47:04;;;;;;;0.20;0.20;;;15.10;62.00;;;;;;5021932;28;20137;-74
2022/06/15 00:49:39;;;;;;;0.32;0.30;;;15.10;61.40;;;;;;5006193;28;20464;-74
2022/06/15 00:52:13;;;;;;;1.30;0.30;;;15.10;61.50;;;;;;5000746;28;20136;-74
2022/06/15 00:54:44;;;;;;;0.30;0.30;;;15.00;61.50;;;;;;4998537;28;20072;-75
2022/06/15 00:57:11;;;;;;;1.63;0.60;;;15.00;61.60;;;;;;4998497;28;20114;-73
2022/06/15 00:59:54;;;;;;;0.55;0.30;;;15.00;61.70;;;;;;4998236;28;20042;-73
2022/06/15 01:02:20;;;;;;;0.98;0.40;;;15.00;61.90;;;;;;4996517;28;20042;-73
2022/06/15 01:04:53;;;;;;;0.30;0.30;;;14.90;61.80;;;;;;5017806;28;20073;-73
2022/06/15 01:07:51;;;;;;;0.38;0.25;;;14.90;61.90;;;;;;5016507;28;20046;-73
2022/06/15 01:10:37;;;;;;;0.40;0.40;;;14.90;62.00;;;;;;5000446;28;20118;-73
2022/06/15 01:13:29;;;;;;;0.32;0.32;;;14.90;62.10;;;;;;5012959;28;20046;-73
2022/06/15 01:16:16;;;;;;;0.20;0.20;;;14.80;62.10;;;;;;4982478;28;20583;-73
2022/06/15 01:19:00;;;;;;;0.32;0.32;;;14.80;62.20;;;;;;4997730;28;20050;-74
2022/06/15 01:21:37;;;;;;;0.40;0.40;;;14.70;62.90;;;;;;5016182;28;20133;-74
2022/06/15 01:24:34;;;;;;;0.30;0.30;;;14.70;62.30;;;;;;4997819;28;20179;-74
2022/06/15 01:27:24;;;;;;;0.20;0.20;;;14.70;62.40;;;;;;4998536;28;20049;-74
2022/06/15 01:30:16;;;;;;;0.35;0.22;;;14.70;62.50;;;;;;5013078;28;20048;-74
2022/06/15 01:32:59;;;;;;;0.60;0.43;;;14.60;62.50;;;;;;5013045;28;20042;-74
2022/06/15 01:35:34;;;;;;;0.30;0.30;;;14.60;62.50;;;;;;5013495;28;20065;-74
2022/06/15 01:38:39;;;;;;;0.30;0.30;;;14.60;62.60;;;;;;5013037;28;20048;-74
2022/06/15 01:41:24;;;;;;;0.20;0.20;;;14.50;62.70;;;;;;5012142;28;20034;-74
2022/06/15 01:43:56;;;;;;;0.20;0.20;;;14.50;62.80;;;;;;4995041;28;20034;-74
2022/06/15 01:46:23;;;;;;;0.35;0.35;;;14.60;62.90;;;;;;5012953;28;20046;-74
2022/06/15 01:48:53;;;;;;;0.47;0.40;;;14.50;63.00;;;;;;4995144;28;20046;-74
2022/06/15 01:51:23;;;;;;;0.30;0.30;;;14.60;63.10;;;;;;5012852;28;20079;-74
2022/06/15 01:53:59;;;;;;;0.20;0.20;;;14.40;63.00;;;;;;5012467;28;20049;-74
2022/06/15 01:56:33;;;;;;;1.45;0.38;;;14.40;63.10;;;;;;5012315;28;20050;-74
2022/06/15 01:59:09;;;;;;;0.30;0.30;;;14.50;63.20;;;;;;5012670;28;20517;-74
2022/06/15 02:02:00;;;;;;;0.40;0.40;;;14.40;63.20;;;;;;5013027;28;20073;-74
2022/06/15 02:04:45;;;;;;;0.30;0.30;;;14.40;63.30;;;;;;5012428;28;20041;-74
2022/06/15 02:07:28;;;;;;;0.50;0.30;;;14.30;63.30;;;;;;4978275;28;20042;-74
2022/06/15 02:09:59;;;;;;;0.30;0.30;;;14.30;63.40;;;;;;4994793;28;20050;-74
2022/06/15 02:12:35;;;;;;;0.30;0.30;;;14.30;63.40;;;;;;4995516;28;20030;-74
2022/06/15 02:15:04;;;;;;;0.30;0.30;;;14.30;63.60;;;;;;4995577;28;20069;-74
2022/06/15 02:17:34;;;;;;;0.30;0.30;;;14.20;63.60;;;;;;4961415;28;20045;-74
2022/06/15 02:20:07;;;;;;;0.45;0.30;;;14.20;63.60;;;;;;4994699;28;20516;-73
2022/06/15 02:22:35;;;;;;;0.30;0.30;;;14.20;63.70;;;;;;5011809;28;20497;-73
2022/06/15 02:25:05;;;;;;;0.30;0.30;;;14.20;63.70;;;;;;4993280;28;20411;-74
2022/06/15 02:27:33;;;;;;;0.40;0.40;;;14.20;63.80;;;;;;4994686;28;20113;-74
2022/06/15 02:30:05;;;;;;;0.38;0.30;;;14.20;63.90;;;;;;5011998;28;20048;-73
2022/06/15 02:32:31;;;;;;;0.52;0.32;;;14.10;63.90;;;;;;5012266;28;20401;-74
2022/06/15 02:34:57;;;;;;;0.40;0.40;;;14.10;64.60;;;;;;5012333;28;20041;-74
2022/06/15 02:37:23;;;;;;;0.30;0.30;;;14.10;64.10;;;;;;4994704;28;20397;-74
2022/06/15 02:39:49;;;;;;;0.50;0.40;;;14.10;64.10;;;;;;5012060;28;20053;-74
2022/06/15 02:42:40;;;;;;;0.73;0.40;;;14.10;64.10;;;;;;4994543;28;20041;-74
2022/06/15 02:45:10;;;;;;;0.55;0.45;;;14.10;64.20;;;;;;5011892;28;20038;-74
2022/06/15 02:47:40;;;;;;;0.40;0.30;;;14.00;64.10;;;;;;5011653;28;20052;-74
2022/06/15 02:50:08;;;;;;;0.43;0.43;;;14.10;64.90;;;;;;5011883;28;20137;-74
2022/06/15 02:52:38;;;;;;;0.30;0.30;;;14.00;64.20;;;;;;5012101;28;20045;-74
2022/06/15 02:55:06;;;;;;;0.20;0.20;;;14.00;64.40;;;;;;4993390;28;20046;-74
2022/06/15 02:57:51;;;;;;;0.30;0.30;;;14.00;64.40;;;;;;5011723;28;20038;-74
2022/06/15 03:00:21;;;;;;;0.57;0.30;;;13.90;64.50;;;;;;5012125;28;20129;-75
2022/06/15 03:02:48;;;;;;;1.20;0.30;;;14.00;64.50;;;;;;5011837;28;20126;-74
2022/06/15 03:05:14;;;;;;;0.20;0.20;;;14.00;64.50;;;;;;4993909;28;20721;-74
2022/06/15 03:07:39;;;;;;;0.25;0.25;;;14.00;64.50;;;;;;5010720;28;20520;-74
2022/06/15 03:10:06;;;;;;;0.30;0.30;;;13.90;64.50;;;;;;4994051;28;20050;-74
2022/06/15 03:12:32;;;;;;;0.25;0.25;;;13.90;64.50;;;;;;5011463;28;20038;-75
2022/06/15 03:14:57;;;;;;;0.93;0.47;;;13.90;64.60;;;;;;5011602;28;20052;-74
2022/06/15 03:17:23;;;;;;;0.55;0.35;;;13.90;64.70;;;;;;4992612;28;20042;-74
2022/06/15 03:19:49;;;;;;;0.50;0.40;;;13.90;64.80;;;;;;4993675;28;20050;-74
2022/06/15 03:22:15;;;;;;;0.52;0.40;;;13.90;64.80;;;;;;4993545;28;20037;-74
2022/06/15 03:24:40;;;;;;;0.20;0.20;;;13.90;64.80;;;;;;5011335;28;20038;-74
2022/06/15 03:27:06;;;;;;;0.30;0.30;;;13.80;64.80;;;;;;5011627;28;20046;-74
2022/06/15 03:29:32;;;;;;;0.22;0.22;;;13.90;64.90;;;;;;4993610;28;20570;-74
2022/06/15 03:31:58;;;;;;;0.95;0.45;;;13.80;64.90;;;;;;5011362;28;20084;-74
2022/06/15 03:34:23;;;;;;;0.22;0.20;;;13.80;64.90;;;;;;5011009;28;20045;-74
2022/06/15 03:36:49;;;;;;;0.82;0.30;;;13.80;65.00;;;;;;4975578;28;20181;-74
2022/06/15 03:39:16;;;;;;;0.28;0.28;;;13.80;65.00;;;;;;5011457;28;20486;-74
2022/06/15 03:41:42;;;;;;;0.40;0.30;;;13.70;65.10;;;;;;5011432;28;20066;-74
2022/06/15 03:44:10;;;;;;;0.30;0.30;;;13.80;65.10;;;;;;4992547;28;20117;-74
2022/06/15 03:46:36;;;;;;;0.22;0.22;;;13.80;65.20;;;;;;5010903;28;20042;-74
2022/06/15 03:49:02;;;;;;;0.55;0.30;;;13.80;65.20;;;;;;5011697;28;20056;-74
2022/06/15 03:51:28;;;;;;;0.40;0.40;;;13.80;65.20;;;;;;4993344;28;20049;-74
2022/06/15 03:53:54;;;;;;;0.47;0.40;;;13.90;65.30;;;;;;5011413;28;20034;-74
2022/06/15 03:56:21;;;;;;;0.28;0.25;;;13.70;65.20;;;;;;4977323;28;20048;-74
2022/06/15 03:58:46;;;;;;;0.20;0.20;;;13.80;65.30;;;;;;5010551;28;20054;-74
2022/06/15 04:01:13;;;;;;;0.45;0.30;;;13.80;65.30;;;;;;5010823;28;20096;-74
2022/06/15 04:03:38;;;;;;;0.40;0.40;;;13.80;65.40;;;;;;5011288;28;20117;-74
2022/06/15 04:06:05;;;;;;;0.30;0.30;;;13.80;65.40;;;;;;5011407;28;20121;-74
2022/06/15 04:08:38;;;;;;;0.25;0.22;;;13.80;65.40;;;;;;5011116;28;20053;-74
2022/06/15 04:11:08;;;;;;;0.30;0.30;;;13.80;65.50;;;;;;5010838;28;20045;-74
2022/06/15 04:13:35;;;;;;;0.20;0.20;;;13.80;65.40;;;;;;5010878;28;20510;-74
2022/06/15 04:16:04;;;;;;;0.63;0.35;;;13.80;65.50;;;;;;5010857;28;20046;-74
2022/06/15 04:18:29;;;;;;;0.22;0.22;;;13.80;65.50;;;;;;4994845;28;20387;-74
2022/06/15 04:20:55;;;;;;;0.30;0.22;;;13.90;65.50;;;;;;5014487;28;20045;-74
2022/06/15 04:23:22;;;;;;;0.32;0.30;;;13.90;65.50;;;;;;5014306;28;20037;-74
2022/06/15 04:25:51;;;;;;;0.52;0.22;;;13.90;65.50;;;;;;5014351;28;20397;-74
2022/06/15 04:28:19;;;;;;;0.30;0.30;;;13.90;65.50;;;;;;4996319;28;20073;-74
2022/06/15 04:30:46;;;;;;;0.52;0.20;;;14.10;65.50;;;;;;5014219;28;20100;-74
2022/06/15 04:33:12;;;;;;;0.57;0.40;;;14.00;65.40;;;;;;5014284;28;20053;-74
2022/06/15 04:35:39;;;;;;;1.48;0.50;;;14.00;65.40;;;;;;5013950;28;20030;-74
2022/06/15 04:38:06;;;;;;;0.30;0.30;;;14.00;65.40;;;;;;5014057;28;20092;-75
2022/06/15 04:40:34;;;;;;;0.70;0.40;;;14.00;65.40;;;;;;5014588;28;20044;-74
2022/06/15 04:43:00;;;;;;;0.80;0.30;;;14.10;65.40;;;;;;5014047;28;20041;-74
2022/06/15 04:45:26;;;;;;;0.93;0.40;;;14.20;65.40;;;;;;5013924;28;20073;-74
2022/06/15 04:47:52;;;;;;;0.25;0.25;;;14.10;65.30;;;;;;5014033;28;20062;-74
2022/06/15 04:50:17;;;;;;;0.47;0.30;;;14.20;65.30;;;;;;4980164;28;20122;-75
2022/06/15 04:52:45;;;;;;;0.38;0.30;;;14.30;65.40;;;;;;5013916;28;20046;-74
2022/06/15 04:55:14;;;;;;;0.20;0.20;;;14.20;65.20;;;;;;4996322;28;20077;-74
2022/06/15 04:57:40;;;;;;;0.47;0.20;;;14.30;65.20;;;;;;5013849;28;20042;-74
2022/06/15 05:00:09;;;;;;;0.80;0.38;;;14.40;65.20;;;;;;5013636;28;20038;-74
2022/06/15 05:02:35;;;;;;;0.30;0.30;;;14.40;65.10;;;;;;4980111;28;20038;-75
2022/06/15 05:05:01;;;;;;;1.13;0.30;;;14.50;65.10;;;;;;5014269;28;20042;-76
2022/06/15 05:07:27;;;;;;;1.17;0.30;;;14.50;65.10;;;;;;5013922;28;20041;-76
2022/06/15 05:09:52;;;;;;;0.73;0.20;;;14.60;65.10;;;;;;4996226;28;20132;-75
2022/06/15 05:12:19;;;;;;;0.70;0.40;;;14.60;65.00;;;;;;4994869;28;20039;-75
2022/06/15 05:14:47;;;;;;;1.05;0.30;;;14.80;65.00;;;;;;5013899;28;20069;-75
2022/06/15 05:17:15;;;;;;;0.73;0.50;;;14.90;64.80;;;;;;5013561;28;20057;-75
2022/06/15 05:19:41;;;;;;;0.55;0.40;;;15.00;64.60;;;;;;4979825;28;20042;-75
2022/06/15 05:22:07;;;;;;;0.43;0.35;;;15.10;64.50;;;;;;5014058;28;20046;-76
2022/06/15 05:24:33;;;;;;;0.30;0.30;;;15.20;64.30;;;;;;5013340;28;20513;-76
2022/06/15 05:26:59;;;;;;;0.43;0.38;;;15.40;64.10;;;;;;4997244;28;20048;-73
2022/06/15 05:29:25;;;;;;;0.30;0.30;;;15.50;64.00;;;;;;4967012;28;20389;-73
2022/06/15 05:31:52;;;;;;;0.55;0.30;;;15.60;63.90;;;;;;5018459;28;20050;-74
2022/06/15 05:34:18;;;;;;;0.80;0.40;;;15.70;63.70;;;;;;5001901;28;20069;-74
2022/06/15 05:36:44;;;;;;;0.65;0.50;;;15.80;63.60;;;;;;5000631;28;20057;-73
2022/06/15 05:39:10;;;;;;;0.50;0.40;;;15.90;63.60;;;;;;5018223;28;20038;-73
2022/06/15 05:41:36;;;;;;;0.47;0.40;;;16.10;63.50;;;;;;5019274;28;20129;-73
2022/06/15 05:44:03;;;;;;;0.35;0.35;;;16.10;63.40;;;;;;4998450;28;20065;-73
2022/06/15 05:46:32;;;;;;;0.85;0.50;;;16.30;63.40;;;;;;5017633;28;20045;-73
2022/06/15 05:48:59;;;;;;;0.47;0.40;;;16.30;63.30;;;;;;5017513;28;20089;-73
2022/06/15 05:51:26;;;;;;;0.52;0.30;;;16.40;63.20;;;;;;5000570;28;20042;-73
2022/06/15 05:53:53;;;;;;;0.30;0.30;;;16.50;63.20;;;;;;5017590;28;20496;-73
2022/06/15 05:56:19;;;;;;;0.20;0.20;;;16.50;63.20;;;;;;4998621;28;20119;-73
2022/06/15 05:58:45;;;;;;;0.50;0.45;;;16.50;63.30;;;;;;5016545;28;20042;-73
2022/06/15 06:01:18;;;;;;;0.70;0.47;;;16.50;63.20;;;;;;4999094;28;20042;-73
2022/06/15 06:03:44;;;;;;;0.40;0.40;;;16.60;63.30;;;;;;5016838;28;20054;-73
2022/06/15 06:06:11;;;;;;;0.38;0.38;;;16.70;63.40;;;;;;4997451;28;20053;-73
2022/06/15 06:08:37;;;;;;;1.65;0.50;;;16.70;63.40;;;;;;5014093;28;20490;-73
2022/06/15 06:11:02;;;;;;;0.93;0.40;;;16.80;63.50;;;;;;5016233;28;20072;-73
2022/06/15 06:13:29;;;;;;;0.85;0.40;;;16.80;63.40;;;;;;5000210;28;20486;-73
2022/06/15 06:15:56;;;;;;;0.57;0.57;;;16.90;63.30;;;;;;5015764;28;20045;-73
2022/06/15 06:18:23;;;;;;;0.40;0.40;;;16.90;63.20;;;;;;5014717;28;20042;-73
2022/06/15 06:20:49;;;;;;;0.45;0.40;;;17.00;63.20;;;;;;4997337;28;20046;-73
2022/06/15 06:23:15;;;;;;;0.30;0.30;;;17.10;63.10;;;;;;5012944;28;21312;-72
2022/06/15 06:25:50;;;;;;;0.20;0.20;;;17.20;63.10;;;;;;5012962;28;20101;-72
2022/06/15 06:28:33;;;;;;;0.50;0.47;;;17.30;63.00;;;;;;4994412;28;20839;-72
2022/06/15 06:31:02;;;;;;;0.88;0.50;;;17.30;62.80;;;;;;5011839;28;20065;-72
2022/06/15 06:33:30;;;;;;;0.52;0.50;;;17.50;62.70;;;;;;5012204;28;20040;-71
2022/06/15 06:35:59;;;;;;;0.95;0.50;;;17.60;62.50;;;;;;5013045;28;20097;-72
2022/06/15 06:38:25;;;;;;;0.93;0.43;;;17.70;62.30;;;;;;5012761;28;20533;-71
2022/06/15 06:40:53;;;;;;;0.30;0.30;;;17.90;62.10;;;;;;5012090;28;20037;-73
2022/06/15 06:43:19;;;;;;;2.28;0.50;;;17.90;61.90;;;;;;5012450;28;20063;-73
2022/06/15 06:45:46;;;;;;;0.95;0.40;;;18.10;61.80;;;;;;5012062;28;20053;-73
2022/06/15 06:48:12;;;;;;;0.25;0.22;;;18.30;61.60;;;;;;5012107;28;20115;-73
2022/06/15 06:50:40;;;;;;;1.75;0.43;;;18.40;61.40;;;;;;5012571;28;20500;-73
2022/06/15 06:53:08;;;;;;;2.05;0.60;;;18.50;61.20;;;;;;5012464;28;20044;-74
2022/06/15 06:55:34;;;;;;;1.25;0.50;;;18.60;60.90;;;;;;5012021;28;20050;-74
2022/06/15 06:58:01;;;;;;;1.35;0.40;;;18.80;60.80;;;;;;4994341;28;20034;-75
2022/06/15 07:00:29;;;;;;;0.45;0.40;;;18.90;60.60;;;;;;4977055;28;20180;-72
2022/06/15 07:02:55;;;;;;;0.40;0.40;;;19.10;60.50;;;;;;4978263;28;20042;-73
2022/06/15 07:05:21;;;;;;;0.38;0.38;;;19.30;60.30;;;;;;5012359;28;20045;-74
2022/06/15 07:07:47;;;;;;;1.70;0.50;;;19.50;60.10;;;;;;5012522;28;20053;-74
2022/06/15 07:10:14;;;;;;;0.40;0.40;;;19.60;59.90;;;;;;5011897;28;20124;-76
2022/06/15 07:12:42;;;;;;;1.23;0.70;;;19.80;59.70;;;;;;4976650;28;20071;-74
2022/06/15 07:15:11;;;;;;;0.40;0.40;;;20.10;59.50;;;;;;4978184;28;20072;-75
2022/06/15 07:17:37;;;;;;;0.40;0.40;;;20.20;59.40;;;;;;5011814;28;20073;-75
2022/06/15 07:20:03;;;;;;;0.93;0.55;;;20.50;59.30;;;;;;4993996;28;20065;-75
2022/06/15 07:22:29;;;;;;;0.50;0.50;;;20.60;59.00;;;;;;5011533;28;20068;-75
2022/06/15 07:24:56;;;;;;;2.13;0.60;;;20.80;59.00;;;;;;4994342;28;20379;-73
2022/06/15 07:27:22;;;;;;;1.05;0.52;;;21.00;58.70;;;;;;5012158;28;20053;-75
2022/06/15 07:29:47;;;;;;;0.73;0.50;;;21.20;58.60;;;;;;4993952;28;20042;-76
2022/06/15 07:32:15;;;;;;;0.80;0.60;;;21.30;58.50;;;;;;4994091;28;20046;-75
2022/06/15 07:34:41;;;;;;;0.40;0.40;;;21.40;58.30;;;;;;4993596;28;20057;-75
2022/06/15 07:37:07;;;;;;;0.40;0.40;;;21.50;58.40;;;;;;4993368;28;20053;-76
2022/06/15 07:39:34;;;;;;;0.30;0.30;;;21.70;58.50;;;;;;4994206;28;20084;-75
2022/06/15 07:42:00;;;;;;;0.38;0.38;;;21.80;58.20;;;;;;5011564;28;20045;-75
2022/06/15 07:44:27;;;;;;;0.40;0.30;;;22.00;58.20;;;;;;4961308;28;20038;-73
2022/06/15 07:52:20;;;;;;;0.52;0.30;;;22.40;57.80;;;;;;4976762;28;20038;-75
2022/06/15 07:54:46;;;;;;;0.75;0.30;;;22.60;57.90;;;;;;4981014;28;20111;-74
2022/06/15 07:57:12;;;;;;;1.98;0.55;;;22.50;57.70;;;;;;4997100;28;20056;-75
2022/06/15 07:59:38;;;;;;;0.40;0.40;;;22.80;57.70;;;;;;5014605;28;20041;-73
2022/06/15 08:02:04;;;;;;;1.02;0.45;;;23.00;57.50;;;;;;5014831;28;20573;-74
2022/06/15 08:04:29;;;;;;;0.45;0.40;;;23.20;57.30;;;;;;5015186;28;20041;-73
2022/06/15 08:06:55;;;;;;;1.05;0.57;;;23.40;57.10;;;;;;4980927;28;20037;-74
2022/06/15 08:09:21;;;;;;;1.17;0.70;;;23.40;56.80;;;;;;4997039;28;20046;-73
2022/06/15 08:14:31;;;;;;;0.55;0.50;;;23.50;56.80;;;;;;4985146;28;20089;-74
2022/06/15 08:16:58;;;;;;;0.30;0.30;;;23.50;56.80;;;;;;5014249;28;20850;-73
2022/06/15 08:19:24;;;;;;;0.60;0.47;;;23.60;56.70;;;;;;5014156;28;20049;-75
2022/06/15 08:21:50;;;;;;;0.68;0.40;;;23.60;56.70;;;;;;4996537;28;20050;-75
2022/06/15 08:24:16;;;;;;;0.90;0.40;;;23.80;56.50;;;;;;5015059;28;20144;-73
2022/06/15 08:26:45;;;;;;;0.40;0.40;;;24.00;56.30;;;;;;5014510;28;20096;-73
2022/06/15 08:29:13;;;;;;;0.40;0.35;;;24.00;56.10;;;;;;4964533;28;20084;-73
2022/06/15 08:31:41;;;;;;;0.50;0.40;;;24.10;56.00;;;;;;4995475;28;20072;-73
2022/06/15 08:34:07;;;;;;;1.42;0.50;;;24.20;55.80;;;;;;4995704;28;20038;-72
2022/06/15 08:36:34;;;;;;;0.70;0.60;;;24.30;55.70;;;;;;4980401;28;20064;-72
2022/06/15 08:39:00;;;;;;;0.75;0.47;;;24.30;55.60;;;;;;4964648;28;20054;-72
2022/06/15 08:41:43;;;;;;;0.30;0.30;;;24.20;55.40;;;;;;4996678;28;20065;-73
2022/06/15 08:44:34;;;;;;;0.45;0.40;;;24.40;55.40;;;;;;4980443;28;20037;-72
2022/06/15 08:47:34;;;;;;;0.30;0.30;;;24.50;55.30;;;;;;4996562;28;20041;-74
2022/06/15 08:50:12;;;;;;;0.60;0.60;;;24.70;55.20;;;;;;4995690;28;20043;-74
2022/06/15 08:52:45;;;;;;;0.80;0.60;;;24.90;55.00;;;;;;4996483;28;20030;-74
2022/06/15 08:55:45;;;;;;;0.90;0.50;;;25.00;54.70;;;;;;4996418;28;20042;-73
2022/06/15 08:58:38;;;;;;;2.05;0.50;;;25.10;54.80;;;;;;5013653;28;20042;-74
2022/06/15 09:01:18;;;;;;;0.40;0.40;;;25.10;54.60;;;;;;4981423;28;20047;-75
2022/06/15 09:03:56;;;;;;;0.68;0.40;;;25.10;54.70;;;;;;4979499;28;20144;-75
2022/06/15 09:06:37;;;;;;;0.65;0.40;;;25.10;54.60;;;;;;4962103;28;20029;-75
2022/06/15 09:09:33;;;;;;;0.60;0.40;;;25.10;54.60;;;;;;4980103;28;20062;-76
2022/06/15 09:15:29;;;;;;;0.40;0.40;;;25.50;54.30;;;;;;4986359;28;20117;-75
2022/06/15 09:17:59;;;;;;;0.70;0.50;;;25.50;54.20;;;;;;4983822;28;20074;-75
2022/06/15 09:20:41;;;;;;;0.55;0.43;;;25.60;54.10;;;;;;4994862;28;20490;-75
2022/06/15 09:23:13;;;;;;;0.38;0.30;;;25.70;53.80;;;;;;4996658;28;20121;-75
2022/06/15 09:25:44;;;;;;;1.15;0.60;;;25.80;53.80;;;;;;4996542;28;20037;-75
2022/06/15 09:28:34;;;;;;;0.73;0.40;;;26.00;53.60;;;;;;4996408;28;20061;-75
2022/06/15 09:31:07;;;;;;;0.30;0.30;;;26.00;53.40;;;;;;4976672;28;20541;-74
2022/06/15 09:33:45;;;;;;;1.10;0.60;;;25.80;53.70;;;;;;4995547;28;20095;-75
2022/06/15 09:36:17;;;;;;;0.47;0.47;;;25.80;53.70;;;;;;4963839;28;20084;-74
2022/06/15 09:38:44;;;;;;;2.75;0.68;;;25.80;53.60;;;;;;4962264;28;20042;-74
2022/06/15 09:41:22;;;;;;;0.52;0.52;;;25.80;53.50;;;;;;4995641;28;20495;-74
2022/06/15 09:44:15;;;;;;;0.43;0.43;;;25.70;53.60;;;;;;4977788;28;20069;-76
2022/06/15 09:47:02;;;;;;;0.50;0.47;;;25.80;53.50;;;;;;4982394;28;20180;-76
2022/06/15 09:49:47;;;;;;;0.73;0.45;;;25.80;53.50;;;;;;4995804;28;20124;-75
2022/06/15 09:52:42;;;;;;;0.40;0.40;;;25.90;53.20;;;;;;4995834;28;20075;-76
2022/06/15 09:55:30;;;;;;;0.60;0.50;;;25.90;53.10;;;;;;5013085;28;20042;-75
2022/06/15 09:57:56;;;;;;;1.27;0.50;;;25.90;53.00;;;;;;5012919;28;20038;-74
2022/06/15 10:00:22;;;;;;;0.30;0.30;;;25.80;53.10;;;;;;4978921;28;20522;-71
2022/06/15 10:02:55;;;;;;;0.40;0.40;;;25.80;53.20;;;;;;4995261;28;20054;-72
2022/06/15 10:05:26;;;;;;;0.50;0.50;;;25.90;53.10;;;;;;4995828;28;20044;-71
2022/06/15 10:07:54;;;;;;;0.55;0.30;;;25.90;53.00;;;;;;4994574;28;20043;-72
2022/06/15 10:10:26;;;;;;;0.63;0.50;;;26.00;52.90;;;;;;4978939;28;20490;-71
2022/06/15 10:12:58;;;;;;;0.40;0.40;;;26.10;52.60;;;;;;5012280;28;20493;-74
2022/06/15 10:15:33;;;;;;;0.52;0.40;;;26.20;52.60;;;;;;4963035;28;20100;-73
2022/06/15 10:18:14;;;;;;;1.42;0.70;;;26.20;52.40;;;;;;4963632;28;20045;-73
2022/06/15 10:20:41;;;;;;;0.47;0.47;;;26.30;52.10;;;;;;4994908;28;20053;-73
2022/06/15 10:23:21;;;;;;;0.68;0.60;;;26.10;52.10;;;;;;4978789;28;20076;-74
2022/06/15 10:25:52;;;;;;;1.48;0.60;;;26.10;52.20;;;;;;4994428;28;20042;-73
2022/06/15 10:28:24;;;;;;;1.52;0.60;;;26.10;52.20;;;;;;4992981;28;20075;-74
2022/06/15 10:30:57;;;;;;;1.00;0.43;;;26.10;52.00;;;;;;4979357;28;20108;-73
2022/06/15 10:33:24;;;;;;;0.68;0.50;;;26.10;52.00;;;;;;4979183;28;20065;-74
2022/06/15 10:35:58;;;;;;;0.75;0.70;;;26.20;51.90;;;;;;4994460;28;20436;-74
2022/06/15 10:38:26;;;;;;;0.95;0.55;;;26.20;51.80;;;;;;4995784;28;20041;-74
2022/06/15 10:41:45;;;;;;;0.45;0.45;;;26.30;51.80;;;;;;4994925;28;20034;-74
2022/06/15 10:43:46;;;;;;;0.30;0.30;;;26.40;51.80;;;;;;4995714;28;20104;-75
2022/06/15 10:46:12;;;;;;;0.65;0.40;;;26.40;51.70;;;;;;4962633;28;20033;-73
2022/06/15 10:48:49;;;;;;;0.63;0.32;;;26.50;51.50;;;;;;4978278;28;20046;-73
2022/06/15 10:51:28;;;;;;;0.82;0.50;;;26.60;51.40;;;;;;4979092;28;20050;-73
2022/06/15 10:54:23;;;;;;;0.50;0.50;;;26.60;51.20;;;;;;4994682;28;20135;-73
2022/06/15 11:02:37;;;;;;;0.77;0.43;;;26.60;51.80;;;;;;4979481;28;20038;-73
2022/06/15 11:05:18;;;;;;;0.57;0.30;;;26.60;51.00;;;;;;4978639;28;20124;-74
2022/06/15 11:07:53;;;;;;;0.47;0.40;;;26.80;50.90;;;;;;4962639;28;20027;-73
2022/06/15 11:10:34;;;;;;;0.55;0.55;;;26.80;50.60;;;;;;5011864;28;20046;-73
2022/06/15 11:13:22;;;;;;;0.63;0.60;;;26.60;50.70;;;;;;4993388;28;20096;-73
2022/06/15 11:18:37;;;;;;;0.70;0.43;;;26.70;50.80;;;;;;5011898;28;20042;-74
2022/06/15 11:21:17;;;;;;;0.70;0.47;;;26.70;50.70;;;;;;4993505;28;20057;-73
2022/06/15 11:23:54;;;;;;;0.65;0.40;;;26.80;50.50;;;;;;5011843;28;20037;-74
2022/06/15 11:29:41;;;;;;;0.57;0.40;;;26.90;50.40;;;;;;4997812;28;20084;-74
2022/06/15 11:32:37;;;;;;;0.70;0.40;;;27.00;50.30;;;;;;5016150;28;20085;-74
2022/06/15 11:35:23;;;;;;;0.52;0.30;;;26.90;50.20;;;;;;5000870;28;20077;-74
2022/06/15 11:38:03;;;;;;;0.55;0.40;;;26.80;50.30;;;;;;4981125;28;20508;-74
2022/06/15 11:40:57;;;;;;;0.30;0.30;;;26.80;50.40;;;;;;4997392;28;20112;-73
2022/06/15 11:43:30;;;;;;;0.30;0.30;;;26.80;50.30;;;;;;4997220;28;20064;-73
2022/06/15 11:46:11;;;;;;;0.30;0.30;;;26.90;50.30;;;;;;4963842;28;20522;-73
2022/06/15 11:49:04;;;;;;;0.55;0.50;;;26.80;50.20;;;;;;4997310;28;20056;-74
2022/06/15 11:51:54;;;;;;;0.40;0.40;;;26.70;50.30;;;;;;4981318;28;20469;-73
2022/06/15 11:54:38;;;;;;;;;;;26.70;50.30;;;;;;4997573;28;20042;-73
2022/06/15 11:57:19;;;;;;;0.65;0.40;;;26.70;50.50;;;;;;4996860;28;19905;-74
2022/06/15 12:00:09;;;;;;;0.30;0.30;;;26.70;50.40;;;;;;4980377;28;20042;-72
2022/06/15 12:03:09;;;;;;;0.85;0.50;;;26.50;50.40;;;;;;5014505;28;20049;-73
2022/06/15 12:05:49;;;;;;;1.58;0.40;;;26.30;50.20;;;;;;5014476;28;20505;-72
2022/06/15 12:08:39;;;;;;;0.65;0.50;;;26.20;50.50;;;;;;5014563;28;20482;-73
2022/06/15 12:14:29;;;;;;;0.97;0.40;;;26.10;50.40;;;;;;5003376;28;20050;-72
2022/06/15 12:17:17;;;;;;;0.90;0.50;;;26.00;51.20;;;;;;5014452;28;20046;-72
2022/06/15 12:19:53;;;;;;;0.93;0.57;;;26.10;50.40;;;;;;4995071;28;20125;-73
2022/06/15 12:22:44;;;;;;;0.57;0.50;;;26.00;50.30;;;;;;5014192;28;20074;-73
2022/06/15 12:25:23;;;;;;;1.33;0.60;;;26.10;50.40;;;;;;4982396;28;20426;-73
2022/06/15 12:28:00;;;;;;;0.40;0.40;;;26.00;50.10;;;;;;5014414;28;20096;-74
2022/06/15 12:30:35;;;;;;;0.85;0.45;;;26.00;50.10;;;;;;5014797;28;20058;-74
2022/06/15 12:33:23;;;;;;;0.52;0.40;;;25.90;50.20;;;;;;4995447;28;20149;-73
2022/06/15 12:36:01;;;;;;;0.95;0.38;;;25.80;50.20;;;;;;5011597;28;20057;-72
2022/06/15 12:38:52;;;;;;;0.40;0.40;;;25.80;50.10;;;;;;4981258;28;20177;-74
2022/06/15 12:44:03;;;;;;;0.55;0.30;;;25.90;50.00;;;;;;5013913;28;20030;-73
2022/06/15 12:46:29;;;;;;;0.50;0.50;;;25.90;49.90;;;;;;4980308;28;20057;-73
2022/06/15 12:49:12;;;;;;;0.63;0.50;;;25.90;49.90;;;;;;4995636;28;20065;-73
2022/06/15 12:52:18;;;;;;;0.90;0.40;;;26.00;49.80;;;;;;4980839;28;20041;-73
2022/06/15 12:55:05;;;;;;;0.43;0.40;;;26.00;49.80;;;;;;4995822;28;20132;-73
2022/06/15 12:57:57;;;;;;;0.40;0.40;;;26.10;49.80;;;;;;4996154;28;20045;-72
2022/06/15 13:00:34;;;;;;;0.30;0.30;;;25.90;49.80;;;;;;4994951;28;20038;-73
2022/06/15 13:03:28;;;;;;;0.45;0.30;;;26.00;49.80;;;;;;4979716;28;20061;-72
2022/06/15 13:06:26;;;;;;;0.57;0.40;;;25.90;49.70;;;;;;5013917;28;20168;-73
2022/06/15 13:09:18;;;;;;;0.55;0.47;;;25.80;49.80;;;;;;5014218;28;20045;-72
2022/06/15 13:12:00;;;;;;;0.35;0.30;;;25.80;49.80;;;;;;4980537;28;20060;-72
2022/06/15 13:14:31;;;;;;;0.85;0.50;;;25.90;49.70;;;;;;5013318;28;20042;-73
2022/06/15 13:17:09;;;;;;;0.60;0.60;;;25.80;49.50;;;;;;4979238;28;20074;-73
2022/06/15 13:19:44;;;;;;;0.55;0.40;;;25.70;49.40;;;;;;4979013;28;20557;-72
2022/06/15 13:22:21;;;;;;;0.45;0.45;;;25.70;49.40;;;;;;5013558;28;20489;-74
2022/06/15 13:24:51;;;;;;;0.30;0.30;;;25.60;49.40;;;;;;4995772;28;20042;-74
2022/06/15 13:27:23;;;;;;;0.63;0.45;;;25.60;49.50;;;;;;4995372;28;20045;-73
2022/06/15 13:29:52;;;;;;;0.40;0.38;;;25.60;49.40;;;;;;5013646;28;20076;-73
2022/06/15 13:32:50;;;;;;;0.35;0.35;;;25.50;49.30;;;;;;4979861;28;20068;-73
2022/06/15 13:35:29;;;;;;;0.52;0.40;;;25.50;49.30;;;;;;4994572;28;20052;-72
2022/06/15 13:37:59;;;;;;;0.38;0.38;;;25.50;49.40;;;;;;4995527;28;20045;-71
2022/06/15 13:41:05;;;;;;;0.50;0.50;;;25.50;49.40;;;;;;4976691;28;20078;-72
2022/06/15 13:44:06;;;;;;;0.32;0.32;;;25.60;49.30;;;;;;4997506;28;20026;-71
2022/06/15 13:46:36;;;;;;;0.30;0.30;;;25.60;49.20;;;;;;4994500;28;20502;-71